createdAt,value
2023-01-13T00:11:37.000Z,72.0
2023-01-13T00:41:47.000Z,72.0
2023-01-13T01:11:49.000Z,73.0
2023-01-13T01:41:53.000Z,73.0
2023-01-13T02:12:02.000Z,75.0
2023-01-13T02:42:07.000Z,75.0
2023-01-13T03:12:09.000Z,78.0
2023-01-13T03:42:14.000Z,78.0
2023-01-13T04:12:24.000Z,79.0
2023-01-13T04:42:25.000Z,85.0
2023-01-13T05:12:35.000Z,85.0
2023-01-13T05:42:42.000Z,85.0
2023-01-13T06:12:49.000Z,85.0
2023-01-13T06:42:50.000Z,79.0
2023-01-13T07:12:52.000Z,80.0
2023-01-13T07:43:00.000Z,82.0
2023-01-13T08:13:04.000Z,84.0
2023-01-13T08:43:05.000Z,88.0
2023-01-13T09:13:07.000Z,85.0
2023-01-13T09:43:11.000Z,84.0
2023-01-13T10:13:21.000Z,83.0
2023-01-13T10:43:31.000Z,80.0
2023-01-13T11:13:35.000Z,75.0
2023-01-13T11:43:36.000Z,91.0
2023-01-13T12:13:38.000Z,91.0
2023-01-13T12:43:41.000Z,87.0
2023-01-13T13:13:43.000Z,93.0
2023-01-13T13:43:47.000Z,85.0
2023-01-13T14:13:47.000Z,87.0
2023-01-13T14:43:52.000Z,80.0
2023-01-13T15:13:56.000Z,80.0
2023-01-13T15:44:01.000Z,81.0
2023-01-13T16:14:04.000Z,91.0
2023-01-13T16:44:05.000Z,93.0
2023-01-13T17:14:07.000Z,94.0
2023-01-13T17:14:17.000Z,94.0
2023-01-13T17:44:29.000Z,91.0
2023-01-13T18:14:31.055Z,91
2023-01-13T18:44:37.000Z,93.0
2023-01-13T19:14:38.000Z,95.0
2023-01-13T19:44:42.074Z,96
2023-01-13T20:14:46.967Z,97
2023-01-13T20:44:54.000Z,97.0
2023-01-13T21:14:58.000Z,98.0
2023-01-13T21:44:58.000Z,97.0
2023-01-13T22:15:08.000Z,96.0
2023-01-13T22:45:10.000Z,97.0
2023-01-13T23:15:19.000Z,97.0
2023-01-13T23:45:21.000Z,97.0
